KADU

Audubon County Airport

Audubon, Iowa, USA
METAR KADU 172055Z AUTO 00000KT 10SM SCT040 BKN045 02/M03 A2995 RMK AO2
Observed Flight Rules
Dec-17 @ 20:55 UTC (20 minutes ago) Visual Flight Rules
Wind Visibility Clouds
Calm 10 miles
  • Scattered at 4,000' AGL
  • Broken at 4,500' AGL
Temperatures Readings
Current 2°C / 36°F
Dewpoint -3°C / 27°F
Humidity 70%
Altimeter 29.95" Hg
Pressure 1014 hPa
Elevation 392
METAR KADU 172055Z AUTO 00000KT 10SM SCT040 BKN045 02/M03 A2995 RMK AO2
Observed Flight Rules
Dec-17 @ 20:55 UTC
(20 minutes ago)
VFR
Wind Visibility
Calm 10 miles
Clouds
  • Scattered at 4,000' AGL
  • Broken at 4,500' AGL
Temperature Dewpoint
2°C / 36°F -3°C / 27°F
Humidity Altimeter Pressure
70% 29.95" Hg 1014 hPa